Terminal Aerodrome Forecast
Issued by NWS Mt. Holly, NJ

Home | Current Version | Previous Version | Text Only | Print | Product List | Glossary On
Versions: 1 2 3 4 5 6 7 8 9 10 11 12 13 14
381
FTUS41 KPHI 251725
TAFABE
TAF
KABE 251725Z 2518/2618 32007KT P6SM SKC
     FM252300 VRB03KT P6SM SKC
     FM261400 15005KT P6SM SCT250=

USA.gov is the U.S. government's official web portal to all federal, state and local government web resources and services.